sensor_id;sensor_type;location;lat;lon;timestamp;temperature;humidity
48212;DHT22;34000;48.772;9.162;2022-12-31T00:01:18;15.20;69.20
48212;DHT22;34000;48.772;9.162;2022-12-31T00:03:44;15.10;69.10
48212;DHT22;34000;48.772;9.162;2022-12-31T00:08:38;15.20;69.20
48212;DHT22;34000;48.772;9.162;2022-12-31T00:11:04;15.10;69.10
48212;DHT22;34000;48.772;9.162;2022-12-31T00:13:29;15.20;69.10
48212;DHT22;34000;48.772;9.162;2022-12-31T00:16:03;15.20;69.10
48212;DHT22;34000;48.772;9.162;2022-12-31T00:18:29;15.20;69.10
48212;DHT22;34000;48.772;9.162;2022-12-31T00:20:54;15.10;69.20
48212;DHT22;34000;48.772;9.162;2022-12-31T00:23:20;15.10;69.30
48212;DHT22;34000;48.772;9.162;2022-12-31T00:25:45;15.10;69.20
48212;DHT22;34000;48.772;9.162;2022-12-31T00:28:11;15.10;69.20
48212;DHT22;34000;48.772;9.162;2022-12-31T00:30:36;15.10;69.20
48212;DHT22;34000;48.772;9.162;2022-12-31T00:33:02;15.10;69.20
48212;DHT22;34000;48.772;9.162;2022-12-31T00:35:27;15.10;69.30
48212;DHT22;34000;48.772;9.162;2022-12-31T00:37:53;15.10;69.30
48212;DHT22;34000;48.772;9.162;2022-12-31T00:40:18;15.10;69.40
48212;DHT22;34000;48.772;9.162;2022-12-31T00:42:44;15.10;69.30
48212;DHT22;34000;48.772;9.162;2022-12-31T00:45:09;15.10;69.20
48212;DHT22;34000;48.772;9.162;2022-12-31T00:47:35;15.20;69.10
48212;DHT22;34000;48.772;9.162;2022-12-31T00:50:00;15.10;69.00
48212;DHT22;34000;48.772;9.162;2022-12-31T00:52:26;15.20;69.10
48212;DHT22;34000;48.772;9.162;2022-12-31T00:54:51;15.20;69.00
48212;DHT22;34000;48.772;9.162;2022-12-31T00:57:17;15.20;69.10
48212;DHT22;34000;48.772;9.162;2022-12-31T00:59:42;15.20;69.10
48212;DHT22;34000;48.772;9.162;2022-12-31T01:02:07;15.20;69.30
48212;DHT22;34000;48.772;9.162;2022-12-31T01:04:33;15.20;69.30
48212;DHT22;34000;48.772;9.162;2022-12-31T01:06:58;15.20;69.40
48212;DHT22;34000;48.772;9.162;2022-12-31T01:09:24;15.20;69.50
48212;DHT22;34000;48.772;9.162;2022-12-31T01:11:50;15.20;69.40
48212;DHT22;34000;48.772;9.162;2022-12-31T01:14:16;15.30;69.50
48212;DHT22;34000;48.772;9.162;2022-12-31T01:16:46;15.30;69.50
48212;DHT22;34000;48.772;9.162;2022-12-31T01:19:14;15.30;69.40
48212;DHT22;34000;48.772;9.162;2022-12-31T01:21:40;15.30;69.40
48212;DHT22;34000;48.772;9.162;2022-12-31T01:24:06;15.30;69.30
48212;DHT22;34000;48.772;9.162;2022-12-31T01:26:32;15.30;69.30
48212;DHT22;34000;48.772;9.162;2022-12-31T01:28:57;15.30;69.40
48212;DHT22;34000;48.772;9.162;2022-12-31T01:31:23;15.30;69.40
48212;DHT22;34000;48.772;9.162;2022-12-31T01:33:49;15.30;69.30
48212;DHT22;34000;48.772;9.162;2022-12-31T01:36:16;15.40;69.30
48212;DHT22;34000;48.772;9.162;2022-12-31T01:38:42;15.30;69.30
48212;DHT22;34000;48.772;9.162;2022-12-31T01:41:11;15.30;69.30
48212;DHT22;34000;48.772;9.162;2022-12-31T01:43:45;15.30;69.40
48212;DHT22;34000;48.772;9.162;2022-12-31T01:46:11;15.40;69.30
48212;DHT22;34000;48.772;9.162;2022-12-31T01:48:38;15.40;69.30
48212;DHT22;34000;48.772;9.162;2022-12-31T01:51:04;15.30;69.30
48212;DHT22;34000;48.772;9.162;2022-12-31T01:53:31;15.40;69.30
48212;DHT22;34000;48.772;9.162;2022-12-31T01:55:57;15.40;69.20
48212;DHT22;34000;48.772;9.162;2022-12-31T01:58:33;15.40;69.20
48212;DHT22;34000;48.772;9.162;2022-12-31T02:01:00;15.30;69.10
48212;DHT22;34000;48.772;9.162;2022-12-31T02:03:26;15.40;69.20
48212;DHT22;34000;48.772;9.162;2022-12-31T02:08:21;15.40;69.10
48212;DHT22;34000;48.772;9.162;2022-12-31T02:10:46;15.30;69.00
48212;DHT22;34000;48.772;9.162;2022-12-31T02:13:12;15.30;69.00
48212;DHT22;34000;48.772;9.162;2022-12-31T02:18:10;15.30;69.10
48212;DHT22;34000;48.772;9.162;2022-12-31T02:23:22;15.30;68.90
48212;DHT22;34000;48.772;9.162;2022-12-31T02:31:09;15.30;68.90
48212;DHT22;34000;48.772;9.162;2022-12-31T02:33:43;15.30;68.80
48212;DHT22;34000;48.772;9.162;2022-12-31T02:36:20;15.40;68.80
48212;DHT22;34000;48.772;9.162;2022-12-31T02:38:47;15.40;68.70
48212;DHT22;34000;48.772;9.162;2022-12-31T02:41:13;15.40;68.60
48212;DHT22;34000;48.772;9.162;2022-12-31T02:43:57;15.40;68.50
48212;DHT22;34000;48.772;9.162;2022-12-31T02:46:35;15.50;68.50
48212;DHT22;34000;48.772;9.162;2022-12-31T02:49:05;15.50;68.40
48212;DHT22;34000;48.772;9.162;2022-12-31T02:51:40;15.60;68.30
48212;DHT22;34000;48.772;9.162;2022-12-31T02:54:10;15.60;68.10
48212;DHT22;34000;48.772;9.162;2022-12-31T02:56:52;15.70;68.10
48212;DHT22;34000;48.772;9.162;2022-12-31T03:02:07;15.70;67.80
48212;DHT22;34000;48.772;9.162;2022-12-31T03:04:44;15.70;67.80
48212;DHT22;34000;48.772;9.162;2022-12-31T03:07:11;15.70;67.80
48212;DHT22;34000;48.772;9.162;2022-12-31T03:09:37;15.70;67.80
48212;DHT22;34000;48.772;9.162;2022-12-31T03:12:04;15.70;67.70
48212;DHT22;34000;48.772;9.162;2022-12-31T03:14:49;15.70;67.60
48212;DHT22;34000;48.772;9.162;2022-12-31T03:17:14;15.70;67.60
48212;DHT22;34000;48.772;9.162;2022-12-31T03:19:40;15.70;67.50
48212;DHT22;34000;48.772;9.162;2022-12-31T03:22:24;15.70;67.50
48212;DHT22;34000;48.772;9.162;2022-12-31T03:25:04;15.70;67.40
48212;DHT22;34000;48.772;9.162;2022-12-31T03:27:48;15.70;67.40
48212;DHT22;34000;48.772;9.162;2022-12-31T03:30:15;15.70;67.40
48212;DHT22;34000;48.772;9.162;2022-12-31T03:32:41;15.70;67.40
48212;DHT22;34000;48.772;9.162;2022-12-31T03:35:07;15.70;67.40
48212;DHT22;34000;48.772;9.162;2022-12-31T03:37:32;15.70;67.30
48212;DHT22;34000;48.772;9.162;2022-12-31T03:39:58;15.80;67.30
48212;DHT22;34000;48.772;9.162;2022-12-31T03:42:23;15.80;67.20
48212;DHT22;34000;48.772;9.162;2022-12-31T03:44:49;15.80;67.10
48212;DHT22;34000;48.772;9.162;2022-12-31T03:47:14;15.90;67.10
48212;DHT22;34000;48.772;9.162;2022-12-31T03:49:40;16.00;67.10
48212;DHT22;34000;48.772;9.162;2022-12-31T03:52:05;16.10;67.00
48212;DHT22;34000;48.772;9.162;2022-12-31T03:54:32;16.10;66.90
48212;DHT22;34000;48.772;9.162;2022-12-31T03:56:58;16.20;66.80
48212;DHT22;34000;48.772;9.162;2022-12-31T03:59:23;16.20;66.70
48212;DHT22;34000;48.772;9.162;2022-12-31T04:01:49;16.30;66.60
48212;DHT22;34000;48.772;9.162;2022-12-31T04:04:14;16.30;66.50
48212;DHT22;34000;48.772;9.162;2022-12-31T04:06:40;16.40;66.50
48212;DHT22;34000;48.772;9.162;2022-12-31T04:09:05;16.40;66.40
48212;DHT22;34000;48.772;9.162;2022-12-31T04:11:31;16.40;66.30
48212;DHT22;34000;48.772;9.162;2022-12-31T04:13:56;16.50;66.30
48212;DHT22;34000;48.772;9.162;2022-12-31T04:16:23;16.50;66.20
48212;DHT22;34000;48.772;9.162;2022-12-31T04:18:49;16.50;66.20
48212;DHT22;34000;48.772;9.162;2022-12-31T04:21:14;16.50;66.10
48212;DHT22;34000;48.772;9.162;2022-12-31T04:23:40;16.60;66.20
48212;DHT22;34000;48.772;9.162;2022-12-31T04:26:05;16.50;66.00
48212;DHT22;34000;48.772;9.162;2022-12-31T04:28:31;16.60;66.00
48212;DHT22;34000;48.772;9.162;2022-12-31T04:30:56;16.60;65.90
48212;DHT22;34000;48.772;9.162;2022-12-31T04:33:22;16.70;65.90
48212;DHT22;34000;48.772;9.162;2022-12-31T04:35:47;16.60;65.80
48212;DHT22;34000;48.772;9.162;2022-12-31T04:38:12;16.60;65.80
48212;DHT22;34000;48.772;9.162;2022-12-31T04:40:38;16.60;65.80
48212;DHT22;34000;48.772;9.162;2022-12-31T04:43:23;16.50;65.80
48212;DHT22;34000;48.772;9.162;2022-12-31T04:45:49;16.50;65.90
48212;DHT22;34000;48.772;9.162;2022-12-31T04:48:14;16.50;66.10
48212;DHT22;34000;48.772;9.162;2022-12-31T04:50:40;16.40;66.00
48212;DHT22;34000;48.772;9.162;2022-12-31T04:53:05;16.50;66.10
48212;DHT22;34000;48.772;9.162;2022-12-31T04:55:31;16.40;66.10
48212;DHT22;34000;48.772;9.162;2022-12-31T04:57:56;16.40;66.00
48212;DHT22;34000;48.772;9.162;2022-12-31T05:00:22;16.40;66.10
48212;DHT22;34000;48.772;9.162;2022-12-31T05:02:47;16.40;66.10
48212;DHT22;34000;48.772;9.162;2022-12-31T05:05:13;16.40;66.10
48212;DHT22;34000;48.772;9.162;2022-12-31T05:07:38;16.40;66.10
48212;DHT22;34000;48.772;9.162;2022-12-31T05:10:04;16.40;66.10
48212;DHT22;34000;48.772;9.162;2022-12-31T05:12:29;16.40;66.10
48212;DHT22;34000;48.772;9.162;2022-12-31T05:14:55;16.30;66.10
48212;DHT22;34000;48.772;9.162;2022-12-31T05:17:20;16.30;66.10
48212;DHT22;34000;48.772;9.162;2022-12-31T05:19:46;16.30;66.20
48212;DHT22;34000;48.772;9.162;2022-12-31T05:22:11;16.30;66.30
48212;DHT22;34000;48.772;9.162;2022-12-31T05:24:58;16.20;66.30
48212;DHT22;34000;48.772;9.162;2022-12-31T05:27:24;16.20;66.40
48212;DHT22;34000;48.772;9.162;2022-12-31T05:29:49;16.30;66.50
48212;DHT22;34000;48.772;9.162;2022-12-31T05:32:15;16.30;66.50
48212;DHT22;34000;48.772;9.162;2022-12-31T05:34:40;16.20;66.40
48212;DHT22;34000;48.772;9.162;2022-12-31T05:37:06;16.20;66.50
48212;DHT22;34000;48.772;9.162;2022-12-31T05:39:31;16.20;66.50
48212;DHT22;34000;48.772;9.162;2022-12-31T05:41:57;16.20;66.50
48212;DHT22;34000;48.772;9.162;2022-12-31T05:44:22;16.30;66.60
48212;DHT22;34000;48.772;9.162;2022-12-31T05:46:48;16.30;66.60
48212;DHT22;34000;48.772;9.162;2022-12-31T05:49:13;16.30;66.50
48212;DHT22;34000;48.772;9.162;2022-12-31T05:51:39;16.20;66.50
48212;DHT22;34000;48.772;9.162;2022-12-31T05:54:04;16.20;66.50
48212;DHT22;34000;48.772;9.162;2022-12-31T05:56:31;16.30;66.50
48212;DHT22;34000;48.772;9.162;2022-12-31T05:58:56;16.30;66.50
48212;DHT22;34000;48.772;9.162;2022-12-31T06:01:22;16.30;66.60
48212;DHT22;34000;48.772;9.162;2022-12-31T06:03:47;16.20;66.40
48212;DHT22;34000;48.772;9.162;2022-12-31T06:06:13;16.30;66.50
48212;DHT22;34000;48.772;9.162;2022-12-31T06:08:38;16.30;66.60
48212;DHT22;34000;48.772;9.162;2022-12-31T06:11:04;16.30;66.70
48212;DHT22;34000;48.772;9.162;2022-12-31T06:13:29;16.30;66.70
48212;DHT22;34000;48.772;9.162;2022-12-31T06:15:55;16.20;66.80
48212;DHT22;34000;48.772;9.162;2022-12-31T06:18:20;16.20;66.80
48212;DHT22;34000;48.772;9.162;2022-12-31T06:20:46;16.30;66.80
48212;DHT22;34000;48.772;9.162;2022-12-31T06:23:11;16.20;66.70
48212;DHT22;34000;48.772;9.162;2022-12-31T06:25:37;16.30;67.30
48212;DHT22;34000;48.772;9.162;2022-12-31T06:28:03;16.30;67.20
48212;DHT22;34000;48.772;9.162;2022-12-31T06:30:28;16.30;66.60
48212;DHT22;34000;48.772;9.162;2022-12-31T06:32:54;16.30;66.60
48212;DHT22;34000;48.772;9.162;2022-12-31T06:35:19;16.30;66.60
48212;DHT22;34000;48.772;9.162;2022-12-31T06:37:45;16.40;66.70
48212;DHT22;34000;48.772;9.162;2022-12-31T06:40:10;16.30;66.60
48212;DHT22;34000;48.772;9.162;2022-12-31T06:42:36;16.30;66.60
48212;DHT22;34000;48.772;9.162;2022-12-31T06:45:02;16.30;66.70
48212;DHT22;34000;48.772;9.162;2022-12-31T06:47:27;16.30;66.60
48212;DHT22;34000;48.772;9.162;2022-12-31T06:49:53;16.30;66.60
48212;DHT22;34000;48.772;9.162;2022-12-31T06:52:18;16.30;66.70
48212;DHT22;34000;48.772;9.162;2022-12-31T06:54:44;16.20;66.60
48212;DHT22;34000;48.772;9.162;2022-12-31T06:57:10;16.30;66.70
48212;DHT22;34000;48.772;9.162;2022-12-31T06:59:35;16.30;66.70
48212;DHT22;34000;48.772;9.162;2022-12-31T07:04:47;16.20;66.70
48212;DHT22;34000;48.772;9.162;2022-12-31T07:07:18;16.30;66.80
48212;DHT22;34000;48.772;9.162;2022-12-31T07:13:06;16.20;66.70
48212;DHT22;34000;48.772;9.162;2022-12-31T07:15:35;16.20;66.70
48212;DHT22;34000;48.772;9.162;2022-12-31T07:20:36;16.20;66.70
48212;DHT22;34000;48.772;9.162;2022-12-31T07:23:01;16.20;66.80
48212;DHT22;34000;48.772;9.162;2022-12-31T07:25:27;16.30;66.80
48212;DHT22;34000;48.772;9.162;2022-12-31T07:30:41;16.30;66.80
48212;DHT22;34000;48.772;9.162;2022-12-31T07:33:17;16.30;66.70
48212;DHT22;34000;48.772;9.162;2022-12-31T07:35:54;16.40;66.70
48212;DHT22;34000;48.772;9.162;2022-12-31T07:43:42;16.50;66.40
48212;DHT22;34000;48.772;9.162;2022-12-31T07:46:16;16.50;66.30
48212;DHT22;34000;48.772;9.162;2022-12-31T07:48:43;16.50;66.10
48212;DHT22;34000;48.772;9.162;2022-12-31T07:51:09;16.60;66.10
48212;DHT22;34000;48.772;9.162;2022-12-31T07:53:35;16.60;66.00
48212;DHT22;34000;48.772;9.162;2022-12-31T07:56:02;16.60;65.90
48212;DHT22;34000;48.772;9.162;2022-12-31T08:01:12;16.70;65.70
48212;DHT22;34000;48.772;9.162;2022-12-31T08:03:43;16.80;65.60
48212;DHT22;34000;48.772;9.162;2022-12-31T08:08:49;16.90;65.30
48212;DHT22;34000;48.772;9.162;2022-12-31T08:13:59;17.00;65.00
48212;DHT22;34000;48.772;9.162;2022-12-31T08:16:25;17.10;64.90
48212;DHT22;34000;48.772;9.162;2022-12-31T08:18:50;17.10;64.80
48212;DHT22;34000;48.772;9.162;2022-12-31T08:26:46;17.30;64.40
48212;DHT22;34000;48.772;9.162;2022-12-31T08:34:14;17.40;64.00
48212;DHT22;34000;48.772;9.162;2022-12-31T08:39:35;17.40;63.80
48212;DHT22;34000;48.772;9.162;2022-12-31T08:42:03;17.50;63.80
48212;DHT22;34000;48.772;9.162;2022-12-31T08:44:42;17.50;63.60
48212;DHT22;34000;48.772;9.162;2022-12-31T08:47:14;17.50;63.40
48212;DHT22;34000;48.772;9.162;2022-12-31T08:49:42;17.60;63.40
48212;DHT22;34000;48.772;9.162;2022-12-31T08:52:21;17.70;63.30
48212;DHT22;34000;48.772;9.162;2022-12-31T08:54:47;17.70;63.20
48212;DHT22;34000;48.772;9.162;2022-12-31T09:00:10;17.80;63.10
48212;DHT22;34000;48.772;9.162;2022-12-31T09:15:41;18.10;62.40
48212;DHT22;34000;48.772;9.162;2022-12-31T09:18:08;18.20;62.10
48212;DHT22;34000;48.772;9.162;2022-12-31T09:20:34;18.40;61.90
48212;DHT22;34000;48.772;9.162;2022-12-31T09:23:00;18.50;61.70
48212;DHT22;34000;48.772;9.162;2022-12-31T09:25:26;18.70;61.40
48212;DHT22;34000;48.772;9.162;2022-12-31T09:30:18;19.20;60.60
48212;DHT22;34000;48.772;9.162;2022-12-31T09:33:00;19.70;60.20
48212;DHT22;34000;48.772;9.162;2022-12-31T09:37:55;21.50;58.10
48212;DHT22;34000;48.772;9.162;2022-12-31T09:40:43;22.50;56.80
48212;DHT22;34000;48.772;9.162;2022-12-31T09:43:24;23.20;55.20
48212;DHT22;34000;48.772;9.162;2022-12-31T09:46:01;23.70;54.10
48212;DHT22;34000;48.772;9.162;2022-12-31T09:48:41;24.40;53.20
48212;DHT22;34000;48.772;9.162;2022-12-31T09:51:19;25.10;52.20
48212;DHT22;34000;48.772;9.162;2022-12-31T09:54:03;25.80;51.10
48212;DHT22;34000;48.772;9.162;2022-12-31T09:59:35;26.80;49.80
48212;DHT22;34000;48.772;9.162;2022-12-31T10:02:14;27.00;48.70
48212;DHT22;34000;48.772;9.162;2022-12-31T10:05:01;26.90;47.40
48212;DHT22;34000;48.772;9.162;2022-12-31T10:07:38;26.90;47.20
48212;DHT22;34000;48.772;9.162;2022-12-31T10:10:08;27.20;47.70
48212;DHT22;34000;48.772;9.162;2022-12-31T10:17:48;28.20;44.60
48212;DHT22;34000;48.772;9.162;2022-12-31T10:22:49;27.80;44.50
48212;DHT22;34000;48.772;9.162;2022-12-31T10:25:22;27.80;43.80
48212;DHT22;34000;48.772;9.162;2022-12-31T10:27:58;27.90;43.70
48212;DHT22;34000;48.772;9.162;2022-12-31T10:30:24;28.20;43.50
48212;DHT22;34000;48.772;9.162;2022-12-31T10:38:06;29.50;41.50
48212;DHT22;34000;48.772;9.162;2022-12-31T11:03:58;30.90;38.20
48212;DHT22;34000;48.772;9.162;2022-12-31T11:06:36;31.00;37.90
48212;DHT22;34000;48.772;9.162;2022-12-31T11:22:23;30.80;36.40
48212;DHT22;34000;48.772;9.162;2022-12-31T11:25:06;30.60;36.30
48212;DHT22;34000;48.772;9.162;2022-12-31T11:27:45;30.50;36.10
48212;DHT22;34000;48.772;9.162;2022-12-31T11:32:52;30.30;35.50
48212;DHT22;34000;48.772;9.162;2022-12-31T11:35:31;30.00;35.40
48212;DHT22;34000;48.772;9.162;2022-12-31T11:38:23;29.70;35.40
48212;DHT22;34000;48.772;9.162;2022-12-31T11:40:55;29.60;35.70
48212;DHT22;34000;48.772;9.162;2022-12-31T11:43:38;29.30;35.60
48212;DHT22;34000;48.772;9.162;2022-12-31T11:54:07;29.10;36.20
48212;DHT22;34000;48.772;9.162;2022-12-31T11:56:37;29.10;36.40
48212;DHT22;34000;48.772;9.162;2022-12-31T11:59:08;29.10;36.50
48212;DHT22;34000;48.772;9.162;2022-12-31T12:01:46;29.20;36.90
48212;DHT22;34000;48.772;9.162;2022-12-31T12:04:13;29.10;36.70
48212;DHT22;34000;48.772;9.162;2022-12-31T12:06:39;28.90;36.80
48212;DHT22;34000;48.772;9.162;2022-12-31T12:09:06;28.80;36.90
48212;DHT22;34000;48.772;9.162;2022-12-31T12:11:33;28.60;36.80
48212;DHT22;34000;48.772;9.162;2022-12-31T12:13:59;28.20;37.00
48212;DHT22;34000;48.772;9.162;2022-12-31T12:16:25;28.10;37.40
48212;DHT22;34000;48.772;9.162;2022-12-31T12:19:05;28.00;37.40
48212;DHT22;34000;48.772;9.162;2022-12-31T12:21:31;27.90;37.50
48212;DHT22;34000;48.772;9.162;2022-12-31T12:24:13;27.70;37.40
48212;DHT22;34000;48.772;9.162;2022-12-31T12:26:41;27.60;37.70
48212;DHT22;34000;48.772;9.162;2022-12-31T12:29:14;27.50;37.90
48212;DHT22;34000;48.772;9.162;2022-12-31T12:31:40;27.40;37.90
48212;DHT22;34000;48.772;9.162;2022-12-31T12:34:19;27.10;38.20
48212;DHT22;34000;48.772;9.162;2022-12-31T12:36:46;26.80;38.30
48212;DHT22;34000;48.772;9.162;2022-12-31T12:39:18;26.50;38.60
48212;DHT22;34000;48.772;9.162;2022-12-31T12:41:44;26.30;39.00
48212;DHT22;34000;48.772;9.162;2022-12-31T12:44:13;26.20;39.30
48212;DHT22;34000;48.772;9.162;2022-12-31T12:46:45;26.00;39.50
48212;DHT22;34000;48.772;9.162;2022-12-31T12:49:26;25.70;39.60
48212;DHT22;34000;48.772;9.162;2022-12-31T13:02:17;25.40;39.80
48212;DHT22;34000;48.772;9.162;2022-12-31T13:19:58;24.10;40.30
48212;DHT22;34000;48.772;9.162;2022-12-31T13:22:33;24.00;40.40
48212;DHT22;34000;48.772;9.162;2022-12-31T13:27:37;23.70;40.50
48212;DHT22;34000;48.772;9.162;2022-12-31T13:30:11;23.50;40.60
48212;DHT22;34000;48.772;9.162;2022-12-31T13:32:41;23.40;40.60
48212;DHT22;34000;48.772;9.162;2022-12-31T13:35:15;23.30;40.80
48212;DHT22;34000;48.772;9.162;2022-12-31T13:37:43;23.30;40.90
48212;DHT22;34000;48.772;9.162;2022-12-31T13:40:16;23.20;40.90
48212;DHT22;34000;48.772;9.162;2022-12-31T13:42:46;23.20;41.10
48212;DHT22;34000;48.772;9.162;2022-12-31T13:45:13;23.10;41.00
48212;DHT22;34000;48.772;9.162;2022-12-31T13:47:43;23.00;41.10
48212;DHT22;34000;48.772;9.162;2022-12-31T13:50:21;22.90;41.30
48212;DHT22;34000;48.772;9.162;2022-12-31T13:52:52;22.90;41.40
48212;DHT22;34000;48.772;9.162;2022-12-31T13:57:50;22.70;41.60
48212;DHT22;34000;48.772;9.162;2022-12-31T14:02:53;22.60;41.80
48212;DHT22;34000;48.772;9.162;2022-12-31T14:05:25;22.60;42.00
48212;DHT22;34000;48.772;9.162;2022-12-31T14:07:54;22.60;42.10
48212;DHT22;34000;48.772;9.162;2022-12-31T14:10:34;22.50;42.10
48212;DHT22;34000;48.772;9.162;2022-12-31T14:20:28;22.40;42.50
48212;DHT22;34000;48.772;9.162;2022-12-31T14:28:06;22.20;42.90
48212;DHT22;34000;48.772;9.162;2022-12-31T14:30:38;22.00;42.90
48212;DHT22;34000;48.772;9.162;2022-12-31T14:33:16;22.00;43.00
48212;DHT22;34000;48.772;9.162;2022-12-31T14:48:42;21.70;43.60
48212;DHT22;34000;48.772;9.162;2022-12-31T14:51:09;21.60;43.60
48212;DHT22;34000;48.772;9.162;2022-12-31T14:53:36;21.50;43.60
48212;DHT22;34000;48.772;9.162;2022-12-31T14:56:03;21.50;43.80
48212;DHT22;34000;48.772;9.162;2022-12-31T14:58:36;21.50;43.90
48212;DHT22;34000;48.772;9.162;2022-12-31T15:01:06;21.40;43.90
48212;DHT22;34000;48.772;9.162;2022-12-31T15:03:43;21.30;44.00
48212;DHT22;34000;48.772;9.162;2022-12-31T15:11:36;21.20;45.10
48212;DHT22;34000;48.772;9.162;2022-12-31T15:21:46;20.90;45.20
48212;DHT22;34000;48.772;9.162;2022-12-31T15:24:25;20.80;45.20
48212;DHT22;34000;48.772;9.162;2022-12-31T15:26:53;20.80;45.30
48212;DHT22;34000;48.772;9.162;2022-12-31T15:29:51;20.80;45.40
48212;DHT22;34000;48.772;9.162;2022-12-31T15:32:16;20.70;45.50
48212;DHT22;34000;48.772;9.162;2022-12-31T15:34:43;20.70;45.60
48212;DHT22;34000;48.772;9.162;2022-12-31T15:40:03;20.60;46.10
48212;DHT22;34000;48.772;9.162;2022-12-31T15:42:34;20.50;46.20
48212;DHT22;34000;48.772;9.162;2022-12-31T15:45:03;20.40;46.30
48212;DHT22;34000;48.772;9.162;2022-12-31T15:47:32;20.40;46.40
48212;DHT22;34000;48.772;9.162;2022-12-31T15:50:00;20.40;46.50
48212;DHT22;34000;48.772;9.162;2022-12-31T15:52:32;20.30;46.50
48212;DHT22;34000;48.772;9.162;2022-12-31T15:54:59;20.20;46.60
48212;DHT22;34000;48.772;9.162;2022-12-31T15:57:38;20.20;46.60
48212;DHT22;34000;48.772;9.162;2022-12-31T16:00:06;20.20;46.70
48212;DHT22;34000;48.772;9.162;2022-12-31T16:02:32;20.10;46.70
48212;DHT22;34000;48.772;9.162;2022-12-31T16:04:57;20.10;46.80
48212;DHT22;34000;48.772;9.162;2022-12-31T16:07:23;20.10;46.90
48212;DHT22;34000;48.772;9.162;2022-12-31T16:09:54;20.10;47.00
48212;DHT22;34000;48.772;9.162;2022-12-31T16:12:22;20.00;47.00
48212;DHT22;34000;48.772;9.162;2022-12-31T16:14:57;20.00;47.00
48212;DHT22;34000;48.772;9.162;2022-12-31T16:19:52;19.90;47.10
48212;DHT22;34000;48.772;9.162;2022-12-31T16:22:23;19.90;47.10
48212;DHT22;34000;48.772;9.162;2022-12-31T16:24:56;19.90;47.20
48212;DHT22;34000;48.772;9.162;2022-12-31T16:27:22;19.80;47.20
48212;DHT22;34000;48.772;9.162;2022-12-31T16:29:49;19.80;47.30
48212;DHT22;34000;48.772;9.162;2022-12-31T16:32:17;19.70;47.30
48212;DHT22;34000;48.772;9.162;2022-12-31T16:34:43;19.70;47.40
48212;DHT22;34000;48.772;9.162;2022-12-31T16:37:16;19.70;47.40
48212;DHT22;34000;48.772;9.162;2022-12-31T16:42:17;19.60;47.70
48212;DHT22;34000;48.772;9.162;2022-12-31T16:44:44;19.50;47.70
48212;DHT22;34000;48.772;9.162;2022-12-31T16:47:14;19.50;47.80
48212;DHT22;34000;48.772;9.162;2022-12-31T16:49:40;19.40;47.90
48212;DHT22;34000;48.772;9.162;2022-12-31T16:52:07;19.40;47.90
48212;DHT22;34000;48.772;9.162;2022-12-31T16:54:43;19.40;48.50
48212;DHT22;34000;48.772;9.162;2022-12-31T16:57:10;19.30;48.00
48212;DHT22;34000;48.772;9.162;2022-12-31T16:59:43;19.30;48.10
48212;DHT22;34000;48.772;9.162;2022-12-31T17:02:15;19.20;48.20
48212;DHT22;34000;48.772;9.162;2022-12-31T17:04:45;19.20;48.20
48212;DHT22;34000;48.772;9.162;2022-12-31T17:07:24;19.20;48.40
48212;DHT22;34000;48.772;9.162;2022-12-31T17:10:00;19.10;48.40
48212;DHT22;34000;48.772;9.162;2022-12-31T17:12:25;19.10;48.60
48212;DHT22;34000;48.772;9.162;2022-12-31T17:14:53;19.00;48.80
48212;DHT22;34000;48.772;9.162;2022-12-31T17:17:25;19.00;48.80
48212;DHT22;34000;48.772;9.162;2022-12-31T17:19:54;18.90;49.00
48212;DHT22;34000;48.772;9.162;2022-12-31T17:22:34;18.90;49.20
48212;DHT22;34000;48.772;9.162;2022-12-31T17:27:27;18.80;49.30
48212;DHT22;34000;48.772;9.162;2022-12-31T17:29:52;18.80;49.40
48212;DHT22;34000;48.772;9.162;2022-12-31T17:34:47;18.80;49.40
48212;DHT22;34000;48.772;9.162;2022-12-31T17:37:17;18.80;49.40
48212;DHT22;34000;48.772;9.162;2022-12-31T17:42:08;18.60;49.80
48212;DHT22;34000;48.772;9.162;2022-12-31T17:44:37;18.60;50.00
48212;DHT22;34000;48.772;9.162;2022-12-31T17:47:03;18.60;50.40
48212;DHT22;34000;48.772;9.162;2022-12-31T17:49:29;18.50;50.60
48212;DHT22;34000;48.772;9.162;2022-12-31T17:51:55;18.40;50.70
48212;DHT22;34000;48.772;9.162;2022-12-31T17:54:20;18.40;50.90
48212;DHT22;34000;48.772;9.162;2022-12-31T17:56:46;18.40;51.00
48212;DHT22;34000;48.772;9.162;2022-12-31T17:59:15;18.30;50.90
48212;DHT22;34000;48.772;9.162;2022-12-31T18:01:41;18.30;51.00
48212;DHT22;34000;48.772;9.162;2022-12-31T18:04:14;18.30;51.10
48212;DHT22;34000;48.772;9.162;2022-12-31T18:06:39;18.30;51.10
48212;DHT22;34000;48.772;9.162;2022-12-31T18:09:05;18.20;51.10
48212;DHT22;34000;48.772;9.162;2022-12-31T18:11:30;18.20;51.10
48212;DHT22;34000;48.772;9.162;2022-12-31T18:13:56;18.30;51.10
48212;DHT22;34000;48.772;9.162;2022-12-31T18:16:22;18.20;51.10
48212;DHT22;34000;48.772;9.162;2022-12-31T18:18:47;18.30;51.10
48212;DHT22;34000;48.772;9.162;2022-12-31T18:21:29;18.10;51.00
48212;DHT22;34000;48.772;9.162;2022-12-31T18:23:56;18.20;51.10
48212;DHT22;34000;48.772;9.162;2022-12-31T18:26:23;18.10;51.10
48212;DHT22;34000;48.772;9.162;2022-12-31T18:28:48;18.10;51.20
48212;DHT22;34000;48.772;9.162;2022-12-31T18:33:39;18.10;51.30
48212;DHT22;34000;48.772;9.162;2022-12-31T18:36:08;18.10;51.30
48212;DHT22;34000;48.772;9.162;2022-12-31T18:38:34;18.00;51.20
48212;DHT22;34000;48.772;9.162;2022-12-31T18:40:59;18.00;51.30
48212;DHT22;34000;48.772;9.162;2022-12-31T18:43:25;18.00;51.30
48212;DHT22;34000;48.772;9.162;2022-12-31T18:45:51;18.00;51.50
48212;DHT22;34000;48.772;9.162;2022-12-31T18:48:17;18.00;51.60
48212;DHT22;34000;48.772;9.162;2022-12-31T18:50:43;18.00;51.60
48212;DHT22;34000;48.772;9.162;2022-12-31T18:53:21;18.00;51.60
48212;DHT22;34000;48.772;9.162;2022-12-31T18:55:48;18.00;51.50
48212;DHT22;34000;48.772;9.162;2022-12-31T18:58:14;18.00;51.50
48212;DHT22;34000;48.772;9.162;2022-12-31T19:00:39;18.00;51.50
48212;DHT22;34000;48.772;9.162;2022-12-31T19:03:05;18.00;51.50
48212;DHT22;34000;48.772;9.162;2022-12-31T19:05:31;18.00;51.40
48212;DHT22;34000;48.772;9.162;2022-12-31T19:07:57;18.00;51.50
48212;DHT22;34000;48.772;9.162;2022-12-31T19:10:23;18.00;51.50
48212;DHT22;34000;48.772;9.162;2022-12-31T19:12:49;18.00;51.50
48212;DHT22;34000;48.772;9.162;2022-12-31T19:15:22;18.00;51.50
48212;DHT22;34000;48.772;9.162;2022-12-31T19:17:48;18.00;51.50
48212;DHT22;34000;48.772;9.162;2022-12-31T19:20:13;18.00;51.50
48212;DHT22;34000;48.772;9.162;2022-12-31T19:22:39;18.00;51.60
48212;DHT22;34000;48.772;9.162;2022-12-31T19:25:21;17.90;51.50
48212;DHT22;34000;48.772;9.162;2022-12-31T19:27:47;17.90;51.50
48212;DHT22;34000;48.772;9.162;2022-12-31T19:30:17;17.90;51.60